Terminal Aerodrome Forecast
Issued by NWS

Home | Current Version | Previous Version | Text Only | Print | Product List | Glossary On
Versions: 1 2 3 4 5 6 7 8 9 10 11 12 13 14 15 16 17 18
168
FTUS41 KBTV 241731
TAFSLK
TAF
KSLK 241731Z 2418/2518 22009G16KT 3SM -SNPL BR SCT008 OVC025
      TEMPO 2418/2421 1SM -SNPL BR BKN008
     FM242100 23009G15KT 3SM -SNPL BR SCT008 OVC015
     FM250300 27005KT P6SM -RAPL OVC012
     FM250600 29004KT P6SM VCSH OVC015
     FM250700 30004KT P6SM VCSH OVC020
     FM251000 36004KT P6SM VCSH OVC025=

USA.gov is the U.S. government's official web portal to all federal, state and local government web resources and services.